Time;durP1;ratioP1;P1;durP2;ratioP2;P2;SDS_P1;SDS_P2;PMS_P1;PMS_P2;Temp;Humidity;BMP_temperature;BMP_pressure;BME280_temperature;BME280_humidity;BME280_pressure;Samples;Min_cycle;Max_cycle;Signal;HPM_P1;HPM_P2
2021/12/04 00:00:07;;;;;;;3.45;3.20;;;1.40;99.90;;;;;;5021565;28;20705;-74
2021/12/04 00:02:34;;;;;;;3.17;3.05;;;1.50;99.90;;;;;;5027463;28;20236;-73
2021/12/04 00:05:02;;;;;;;3.47;3.28;;;1.50;99.90;;;;;;5026192;28;20231;-73
2021/12/04 00:07:32;;;;;;;3.50;3.30;;;1.50;99.90;;;;;;5025316;28;20254;-74
2021/12/04 00:10:01;;;;;;;3.38;3.17;;;1.50;99.90;;;;;;5022366;28;20310;-72
2021/12/04 00:12:31;;;;;;;3.63;3.42;;;1.50;99.90;;;;;;5024343;28;20314;-73
2021/12/04 00:15:01;;;;;;;3.67;3.47;;;1.40;99.90;;;;;;5035908;28;20241;-74
2021/12/04 00:17:29;;;;;;;3.65;3.35;;;1.40;99.90;;;;;;5028432;28;20224;-73
2021/12/04 00:19:56;;;;;;;3.40;3.20;;;1.40;99.90;;;;;;5023359;28;20725;-72
2021/12/04 00:22:24;;;;;;;3.30;3.10;;;1.40;99.90;;;;;;5026700;28;20223;-72
2021/12/04 00:24:51;;;;;;;3.15;2.95;;;1.40;99.90;;;;;;5021745;28;20709;-73
2021/12/04 00:27:19;;;;;;;3.40;3.20;;;1.40;99.90;;;;;;5028960;28;20231;-73
2021/12/04 00:29:47;;;;;;;3.13;2.92;;;1.30;99.90;;;;;;5023264;28;20226;-73
2021/12/04 00:32:25;;;;;;;3.50;3.30;;;1.30;99.90;;;;;;5024872;28;20358;-73
2021/12/04 00:35:00;;;;;;;3.08;2.88;;;1.30;99.90;;;;;;5022063;28;20281;-73
2021/12/04 00:37:56;;;;;;;3.33;3.13;;;1.30;99.90;;;;;;5025034;28;20219;-75
2021/12/04 00:49:10;;;;;;;3.13;2.92;;;1.40;99.90;;;;;;5023336;28;20261;-72
2021/12/04 00:51:39;;;;;;;3.30;3.10;;;1.40;99.90;;;;;;5022564;28;20227;-73
2021/12/04 00:54:09;;;;;;;3.53;3.33;;;1.40;99.90;;;;;;5023125;28;20235;-73
2021/12/04 00:56:37;;;;;;;3.70;3.50;;;1.40;99.90;;;;;;5023114;28;20227;-73
2021/12/04 00:59:05;;;;;;;3.65;3.40;;;1.40;99.90;;;;;;5021748;28;20310;-74
2021/12/04 01:01:34;;;;;;;4.05;3.85;;;1.40;99.90;;;;;;5025235;28;20238;-73
2021/12/04 01:04:01;;;;;;;3.95;3.65;;;1.30;99.90;;;;;;5024867;28;20223;-73
2021/12/04 01:06:28;;;;;;;3.63;3.33;;;1.30;99.90;;;;;;5025727;28;20227;-71
2021/12/04 01:08:55;;;;;;;3.67;3.47;;;1.30;99.90;;;;;;5042563;28;20698;-71
2021/12/04 01:11:22;;;;;;;3.75;3.55;;;1.20;99.90;;;;;;5026580;28;20322;-73
2021/12/04 01:13:49;;;;;;;3.67;3.47;;;1.20;99.90;;;;;;5022058;28;20243;-73
2021/12/04 01:16:17;;;;;;;3.60;3.40;;;1.20;99.90;;;;;;5025982;28;20220;-73
2021/12/04 01:18:46;;;;;;;4.32;4.03;;;1.20;99.90;;;;;;5024467;28;20690;-74
2021/12/04 01:21:13;;;;;;;3.33;3.13;;;1.20;99.90;;;;;;5022938;28;20231;-73
2021/12/04 01:23:40;;;;;;;4.07;3.80;;;1.10;99.90;;;;;;5024118;28;20586;-73
2021/12/04 01:26:07;;;;;;;3.63;3.42;;;1.10;99.90;;;;;;5024359;28;20223;-71
2021/12/04 01:28:34;;;;;;;3.10;3.00;;;1.00;99.90;;;;;;5023887;28;20710;-73
2021/12/04 01:31:01;;;;;;;3.88;3.67;;;1.10;99.90;;;;;;5022429;28;20227;-73
2021/12/04 01:33:29;;;;;;;3.90;3.70;;;1.10;99.90;;;;;;5017793;28;20223;-74
2021/12/04 01:35:57;;;;;;;3.90;3.70;;;1.10;99.90;;;;;;5020482;28;20215;-71
2021/12/04 01:38:24;;;;;;;3.53;3.33;;;1.20;99.90;;;;;;5023393;28;20235;-74
2021/12/04 01:40:51;;;;;;;3.65;3.42;;;1.20;99.90;;;;;;5024200;28;20246;-74
2021/12/04 01:43:19;;;;;;;3.20;3.00;;;1.20;99.90;;;;;;5023106;28;20227;-73
2021/12/04 01:45:46;;;;;;;3.25;3.05;;;1.20;99.90;;;;;;5022174;28;20227;-73
2021/12/04 01:48:13;;;;;;;3.35;3.15;;;1.30;99.90;;;;;;5025654;28;20226;-72
2021/12/04 01:50:40;;;;;;;3.45;3.25;;;1.30;99.90;;;;;;5022548;28;20701;-74
2021/12/04 01:53:08;;;;;;;3.45;3.25;;;1.30;99.90;;;;;;5023780;28;20719;-73
2021/12/04 01:55:37;;;;;;;3.60;3.40;;;1.30;99.90;;;;;;5026150;28;20243;-74
2021/12/04 01:58:05;;;;;;;3.25;3.05;;;1.30;99.90;;;;;;5026972;28;20306;-73
2021/12/04 02:00:34;;;;;;;3.50;3.30;;;1.30;99.90;;;;;;5023269;28;20231;-72
2021/12/04 02:03:03;;;;;;;3.25;3.05;;;1.30;99.90;;;;;;5038779;28;20246;-74
2021/12/04 02:05:30;;;;;;;3.17;3.08;;;1.30;99.90;;;;;;5020403;28;20310;-73
2021/12/04 02:07:58;;;;;;;3.30;3.10;;;1.30;99.90;;;;;;5023264;28;20220;-75
2021/12/04 02:10:27;;;;;;;3.63;3.40;;;1.30;99.90;;;;;;5024709;28;20220;-75
2021/12/04 02:12:54;;;;;;;2.83;2.67;;;1.30;99.90;;;;;;5018708;28;20234;-74
2021/12/04 02:15:21;;;;;;;3.85;3.65;;;1.30;99.90;;;;;;5020555;28;20236;-74
2021/12/04 02:17:49;;;;;;;3.17;3.00;;;1.30;99.90;;;;;;5024297;28;20321;-74
2021/12/04 02:20:20;;;;;;;3.40;3.20;;;1.20;99.90;;;;;;5023485;28;20242;-74
2021/12/04 02:22:47;;;;;;;3.70;3.50;;;1.20;99.90;;;;;;5021864;28;20277;-74
2021/12/04 02:25:15;;;;;;;2.85;2.75;;;1.10;99.90;;;;;;5023073;28;20227;-73
2021/12/04 02:27:43;;;;;;;3.63;3.42;;;1.10;99.90;;;;;;5025560;28;20231;-74
2021/12/04 02:30:15;;;;;;;3.38;3.17;;;1.00;99.90;;;;;;5026609;28;20973;-74
2021/12/04 02:32:43;;;;;;;3.03;2.83;;;1.00;99.90;;;;;;5026445;28;20230;-74
2021/12/04 02:35:12;;;;;;;3.30;3.20;;;0.90;99.90;;;;;;5030313;28;20235;-73
2021/12/04 02:37:43;;;;;;;3.78;3.47;;;0.90;99.90;;;;;;5025900;28;20239;-74
2021/12/04 02:40:12;;;;;;;3.70;3.50;;;0.90;99.90;;;;;;5029998;28;20684;-75
2021/12/04 02:42:41;;;;;;;3.00;2.90;;;0.80;99.90;;;;;;5027628;28;20239;-74
2021/12/04 02:45:10;;;;;;;3.80;3.60;;;0.80;99.90;;;;;;5025872;28;20367;-74
2021/12/04 02:47:38;;;;;;;3.60;3.40;;;0.80;99.90;;;;;;5024905;28;20215;-75
2021/12/04 02:50:07;;;;;;;3.38;3.17;;;0.80;99.90;;;;;;5028174;28;20224;-74
2021/12/04 02:52:34;;;;;;;3.33;3.13;;;0.80;99.90;;;;;;5026791;28;20234;-74
2021/12/04 02:55:05;;;;;;;3.75;3.45;;;0.80;99.90;;;;;;5034166;28;20223;-77
2021/12/04 02:57:35;;;;;;;3.20;3.05;;;0.80;99.90;;;;;;5039878;28;20573;-73
2021/12/04 03:00:03;;;;;;;3.50;3.30;;;0.70;99.90;;;;;;5020429;28;20231;-74
2021/12/04 03:02:31;;;;;;;3.40;3.20;;;0.70;99.90;;;;;;5023289;28;20242;-74
2021/12/04 03:05:02;;;;;;;3.60;3.40;;;0.60;99.90;;;;;;5028919;28;20227;-75
2021/12/04 03:07:29;;;;;;;3.60;3.40;;;0.60;99.90;;;;;;5028322;28;20227;-74
2021/12/04 03:09:56;;;;;;;3.72;3.50;;;0.60;99.90;;;;;;5031204;28;20222;-75
2021/12/04 03:12:25;;;;;;;3.40;3.20;;;0.60;99.90;;;;;;5024404;28;20223;-74
2021/12/04 03:14:53;;;;;;;3.58;3.38;;;0.60;99.90;;;;;;5025593;28;20242;-75
2021/12/04 03:17:22;;;;;;;3.55;3.30;;;0.60;99.90;;;;;;5031965;22;20670;-77
2021/12/04 03:19:51;;;;;;;3.28;3.08;;;0.60;99.90;;;;;;5004527;28;20431;-75
2021/12/04 03:22:20;;;;;;;3.00;2.90;;;0.60;99.90;;;;;;5003895;28;20242;-75
2021/12/04 03:24:47;;;;;;;3.72;3.42;;;0.60;99.90;;;;;;5009468;28;20232;-76
2021/12/04 03:27:16;;;;;;;3.33;3.13;;;0.70;99.90;;;;;;5015145;28;20238;-76
2021/12/04 03:29:48;;;;;;;3.03;2.85;;;0.70;99.90;;;;;;5008454;28;20255;-77
2021/12/04 03:32:45;;;;;;;3.33;3.13;;;0.70;99.90;;;;;;5007936;28;20235;-76
2021/12/04 03:43:21;;;;;;;3.40;3.20;;;0.60;99.90;;;;;;4989567;28;20229;-75
2021/12/04 03:45:54;;;;;;;3.60;3.40;;;0.60;99.90;;;;;;5006492;28;20255;-76
2021/12/04 03:51:08;;;;;;;3.70;3.50;;;0.50;99.90;;;;;;5001379;28;20689;-77
2021/12/04 03:53:36;;;;;;;3.28;3.08;;;0.40;99.90;;;;;;5000438;28;20680;-78
2021/12/04 03:56:04;;;;;;;3.45;3.28;;;0.40;99.90;;;;;;5001536;28;20246;-75
2021/12/04 03:58:31;;;;;;;3.40;3.20;;;0.40;99.90;;;;;;5010659;28;20605;-77
2021/12/04 04:00:59;;;;;;;4.03;3.63;;;0.40;99.90;;;;;;5003841;28;20691;-78
2021/12/04 04:03:27;;;;;;;3.78;3.42;;;0.40;99.90;;;;;;4993941;28;20244;-78
2021/12/04 04:05:55;;;;;;;4.00;3.80;;;0.40;99.90;;;;;;4992967;28;20219;-76
2021/12/04 04:08:22;;;;;;;3.90;3.70;;;0.40;99.90;;;;;;5005423;28;20252;-75
2021/12/04 04:10:52;;;;;;;4.07;3.88;;;0.40;99.90;;;;;;5009551;28;20220;-75
2021/12/04 04:13:19;;;;;;;3.95;3.58;;;0.40;99.90;;;;;;4994737;28;20698;-76
2021/12/04 04:15:46;;;;;;;3.72;3.53;;;0.30;99.90;;;;;;4997597;28;20307;-76
2021/12/04 04:18:15;;;;;;;3.55;3.35;;;0.30;99.90;;;;;;5007584;28;20722;-77
2021/12/04 04:20:42;;;;;;;3.97;3.78;;;0.30;99.90;;;;;;5009662;28;20725;-78
2021/12/04 04:23:09;;;;;;;3.60;3.40;;;0.30;99.90;;;;;;5006945;28;20228;-77
2021/12/04 04:25:37;;;;;;;3.90;3.70;;;0.30;99.90;;;;;;5004273;28;20311;-76
2021/12/04 04:28:04;;;;;;;3.42;3.22;;;0.30;99.90;;;;;;5008303;28;20223;-76
2021/12/04 04:30:31;;;;;;;3.88;3.67;;;0.30;99.90;;;;;;5004456;28;20232;-76
2021/12/04 04:33:00;;;;;;;3.75;3.55;;;0.30;99.90;;;;;;4997032;28;20235;-77
2021/12/04 04:35:30;;;;;;;3.70;3.50;;;0.30;99.90;;;;;;5007123;28;20234;-76
2021/12/04 04:38:05;;;;;;;3.55;3.35;;;0.40;99.90;;;;;;4991005;28;20262;-76
2021/12/04 05:11:12;;;;;;;3.90;3.63;;;0.10;99.90;;;;;;5006847;28;20231;-79
2021/12/04 05:13:40;;;;;;;4.20;3.90;;;0.10;99.90;;;;;;5003833;28;20240;-76
2021/12/04 05:16:14;;;;;;;4.35;4.05;;;0.10;99.90;;;;;;4992195;28;20256;-77
2021/12/04 05:18:50;;;;;;;3.92;3.72;;;0.10;99.90;;;;;;4994783;28;20282;-76
2021/12/04 05:21:17;;;;;;;4.10;3.90;;;0.10;99.90;;;;;;5008091;28;20747;-77
2021/12/04 05:23:48;;;;;;;3.83;3.63;;;0.10;99.90;;;;;;5007529;28;20226;-76
2021/12/04 05:26:20;;;;;;;3.60;3.40;;;0.10;99.90;;;;;;5006393;28;20224;-77
2021/12/04 05:28:48;;;;;;;3.35;3.25;;;0.10;99.90;;;;;;4997920;28;20228;-77
2021/12/04 05:31:15;;;;;;;3.22;3.08;;;0.10;99.90;;;;;;4987691;28;20213;-77
2021/12/04 05:33:43;;;;;;;3.83;3.63;;;0.10;99.90;;;;;;4988286;28;20729;-77
2021/12/04 05:36:10;;;;;;;4.03;3.83;;;0.00;99.90;;;;;;5005947;28;20231;-78
2021/12/04 05:38:38;;;;;;;4.07;3.88;;;0.00;99.90;;;;;;5005413;28;20228;-76
2021/12/04 05:41:08;;;;;;;3.60;3.40;;;0.00;99.90;;;;;;5004855;28;20227;-75
2021/12/04 05:43:36;;;;;;;3.45;3.25;;;0.00;99.90;;;;;;5002215;28;20231;-76
2021/12/04 05:46:10;;;;;;;3.35;3.15;;;0.00;99.90;;;;;;4997807;28;20264;-76
2021/12/04 05:48:44;;;;;;;4.07;3.80;;;-0.10;99.90;;;;;;4987572;28;20228;-79
2021/12/04 05:54:19;;;;;;;4.20;3.90;;;0.00;99.90;;;;;;4926094;29;20326;-77
2021/12/04 05:56:48;;;;;;;3.85;3.65;;;0.00;99.90;;;;;;4993449;28;20239;-76
2021/12/04 05:59:15;;;;;;;3.92;3.63;;;0.00;99.90;;;;;;5005457;28;20223;-76
2021/12/04 06:01:42;;;;;;;4.05;3.85;;;0.00;99.90;;;;;;5005195;28;20220;-77
2021/12/04 06:04:09;;;;;;;3.25;3.13;;;-0.10;99.90;;;;;;5013083;28;20242;-77
2021/12/04 06:06:36;;;;;;;3.70;3.50;;;0.00;99.90;;;;;;5007790;28;20228;-77
2021/12/04 06:09:04;;;;;;;4.05;3.75;;;0.00;99.90;;;;;;4991749;28;20240;-77
2021/12/04 06:11:31;;;;;;;3.88;3.67;;;0.00;99.90;;;;;;4991547;28;20230;-77
2021/12/04 06:14:00;;;;;;;3.60;3.40;;;0.00;99.90;;;;;;5002181;28;20310;-78
2021/12/04 06:16:27;;;;;;;3.60;3.40;;;0.00;99.90;;;;;;4993687;28;20220;-79
2021/12/04 06:18:55;;;;;;;3.05;2.95;;;0.00;99.90;;;;;;5009148;28;20227;-78
2021/12/04 06:24:07;;;;;;;4.07;3.83;;;0.00;99.90;;;;;;4991809;28;20247;-77
2021/12/04 06:26:37;;;;;;;4.25;3.95;;;0.00;99.90;;;;;;5010717;28;20240;-76
2021/12/04 06:29:06;;;;;;;3.60;3.40;;;0.00;99.90;;;;;;5009089;28;20236;-78
2021/12/04 06:31:33;;;;;;;3.90;3.70;;;0.00;99.90;;;;;;5009130;28;20224;-77
2021/12/04 06:34:01;;;;;;;3.22;3.03;;;0.00;99.90;;;;;;4998239;28;20217;-78
2021/12/04 06:36:28;;;;;;;3.55;3.35;;;0.00;99.90;;;;;;5001973;28;20262;-77
2021/12/04 06:38:56;;;;;;;3.70;3.50;;;0.00;99.90;;;;;;5006886;28;20233;-77
2021/12/04 06:41:23;;;;;;;3.17;2.97;;;0.00;99.90;;;;;;5002487;28;20223;-76
2021/12/04 06:43:52;;;;;;;4.22;3.92;;;0.00;99.90;;;;;;5009610;28;20541;-76
2021/12/04 06:46:22;;;;;;;4.30;4.10;;;0.00;99.90;;;;;;5006735;28;20224;-77
2021/12/04 06:49:00;;;;;;;3.70;3.50;;;-0.10;99.90;;;;;;5003843;28;20224;-74
2021/12/04 06:51:32;;;;;;;4.13;3.92;;;-0.10;99.90;;;;;;4988580;28;20216;-77
2021/12/04 06:54:03;;;;;;;4.68;4.38;;;-0.10;99.90;;;;;;5006276;28;20303;-77
2021/12/04 06:56:34;;;;;;;4.28;4.00;;;-0.10;99.90;;;;;;5002540;28;20235;-77
2021/12/04 06:59:04;;;;;;;4.82;4.53;;;-0.10;99.90;;;;;;5005518;28;20242;-75
2021/12/04 07:01:33;;;;;;;4.35;4.05;;;0.00;99.90;;;;;;5002685;28;20237;-75
2021/12/04 07:04:00;;;;;;;4.13;3.92;;;0.10;99.90;;;;;;5004876;28;20235;-77
2021/12/04 07:06:27;;;;;;;4.60;4.05;;;0.10;99.90;;;;;;5000338;28;20224;-78
2021/12/04 07:08:56;;;;;;;4.32;4.03;;;0.10;99.90;;;;;;5006344;28;20220;-77
2021/12/04 07:11:23;;;;;;;4.35;4.05;;;0.20;99.90;;;;;;5009167;28;20230;-77
2021/12/04 07:13:50;;;;;;;4.07;3.88;;;0.20;99.90;;;;;;5007222;28;20231;-78
2021/12/04 07:16:19;;;;;;;6.13;4.30;;;0.20;99.90;;;;;;4999391;28;20710;-78
2021/12/04 07:18:47;;;;;;;3.90;3.60;;;0.30;99.90;;;;;;5008300;28;20224;-77
2021/12/04 07:21:14;;;;;;;4.13;3.88;;;0.30;99.90;;;;;;5008740;28;20234;-77
2021/12/04 07:23:42;;;;;;;4.03;3.83;;;0.30;99.90;;;;;;5009866;28;20734;-78
2021/12/04 07:26:10;;;;;;;4.03;3.72;;;0.40;99.90;;;;;;5006762;28;20240;-74
2021/12/04 07:28:37;;;;;;;4.07;3.88;;;0.50;99.90;;;;;;5000248;28;20224;-78
2021/12/04 07:31:05;;;;;;;4.35;4.00;;;0.50;99.90;;;;;;5007306;28;20232;-78
2021/12/04 07:33:32;;;;;;;4.15;3.75;;;0.50;99.90;;;;;;5005881;28;20220;-77
2021/12/04 07:36:01;;;;;;;4.35;4.03;;;0.60;99.90;;;;;;5008030;28;20302;-76
2021/12/04 07:38:29;;;;;;;4.97;4.10;;;0.60;99.90;;;;;;5004141;28;20234;-76
2021/12/04 07:40:57;;;;;;;3.80;3.60;;;0.70;99.90;;;;;;5003367;28;20216;-76
2021/12/04 07:43:24;;;;;;;3.90;3.60;;;0.80;99.90;;;;;;5006385;28;20311;-76
2021/12/04 07:45:51;;;;;;;4.75;4.45;;;0.90;99.90;;;;;;5006526;28;20722;-77
2021/12/04 07:48:18;;;;;;;3.58;3.38;;;1.00;99.90;;;;;;5011448;28;20736;-76
2021/12/04 07:50:46;;;;;;;4.18;3.88;;;1.00;99.90;;;;;;5003486;28;20224;-78
2021/12/04 07:53:14;;;;;;;4.25;3.95;;;1.10;99.90;;;;;;5008268;28;20641;-76
2021/12/04 07:55:41;;;;;;;4.28;3.88;;;1.20;99.90;;;;;;5005972;28;20224;-77
2021/12/04 07:58:08;;;;;;;3.60;3.40;;;1.20;99.90;;;;;;5003279;28;20237;-78
2021/12/04 08:00:36;;;;;;;5.05;4.65;;;1.30;99.90;;;;;;5007395;28;20228;-77
2021/12/04 08:03:03;;;;;;;4.88;4.57;;;1.20;99.90;;;;;;5004547;28;20220;-77
2021/12/04 08:05:30;;;;;;;4.70;4.40;;;1.20;99.90;;;;;;5003147;28;20224;-77
2021/12/04 08:07:57;;;;;;;5.30;4.90;;;1.20;99.90;;;;;;5007563;28;20707;-77
2021/12/04 08:10:26;;;;;;;5.10;4.70;;;1.40;99.90;;;;;;5008915;28;20758;-76
2021/12/04 08:12:56;;;;;;;5.57;5.15;;;1.90;99.90;;;;;;5004208;28;20719;-76
2021/12/04 08:15:23;;;;;;;5.28;4.88;;;2.50;99.90;;;;;;4998128;28;20220;-76
2021/12/04 08:17:50;;;;;;;6.43;5.88;;;3.10;99.90;;;;;;5002633;28;20236;-76
2021/12/04 08:20:18;;;;;;;6.18;5.57;;;3.60;99.90;;;;;;5008021;28;20230;-76
2021/12/04 08:22:46;;;;;;;5.47;5.07;;;4.20;99.90;;;;;;5003088;28;20224;-75
2021/12/04 08:25:16;;;;;;;5.00;4.60;;;4.70;99.90;;;;;;5002705;28;20232;-76
2021/12/04 08:27:44;;;;;;;4.40;3.97;;;5.40;99.90;;;;;;4997036;28;20228;-77
2021/12/04 08:30:16;;;;;;;3.90;3.60;;;6.00;99.90;;;;;;5009446;28;20307;-76
2021/12/04 08:32:44;;;;;;;3.90;3.67;;;6.60;99.90;;;;;;5003002;28;20236;-77
2021/12/04 08:35:13;;;;;;;3.70;3.50;;;7.00;99.90;;;;;;5006399;28;20254;-77
2021/12/04 08:37:40;;;;;;;4.78;4.38;;;7.30;99.90;;;;;;5000882;28;20616;-77
2021/12/04 08:40:10;;;;;;;5.28;4.78;;;7.50;99.90;;;;;;5002639;28;20275;-77
2021/12/04 08:42:38;;;;;;;5.95;5.40;;;7.50;99.90;;;;;;5001872;28;20225;-78
2021/12/04 08:45:09;;;;;;;4.97;4.57;;;7.60;99.90;;;;;;5008801;28;20235;-76
2021/12/04 08:47:37;;;;;;;4.07;3.67;;;7.70;99.90;;;;;;5004768;28;20244;-76
2021/12/04 08:50:05;;;;;;;4.60;3.72;;;7.90;99.90;;;;;;5005609;28;20240;-77
2021/12/04 08:52:33;;;;;;;3.85;3.50;;;8.10;99.90;;;;;;5007031;28;20236;-76
2021/12/04 08:55:00;;;;;;;3.15;2.88;;;8.30;99.90;;;;;;5013840;28;20231;-76
2021/12/04 08:57:27;;;;;;;4.10;3.80;;;8.60;99.90;;;;;;4987158;28;20243;-77
2021/12/04 08:59:54;;;;;;;4.07;3.67;;;8.90;99.90;;;;;;5006908;28;20235;-77
2021/12/04 09:02:23;;;;;;;3.45;3.15;;;9.10;98.70;;;;;;5009737;28;20232;-76
2021/12/04 09:04:51;;;;;;;4.25;3.95;;;9.60;98.20;;;;;;5003686;28;20721;-76
2021/12/04 09:07:18;;;;;;;3.78;3.40;;;10.60;96.70;;;;;;5002908;28;20225;-76
2021/12/04 09:09:46;;;;;;;4.22;3.88;;;11.50;94.50;;;;;;4992511;28;20236;-75
2021/12/04 09:12:15;;;;;;;4.07;3.78;;;12.50;92.10;;;;;;5006829;28;20716;-75
2021/12/04 09:14:47;;;;;;;4.13;3.45;;;13.20;89.70;;;;;;5000237;28;20228;-74
2021/12/04 09:17:16;;;;;;;3.97;3.60;;;14.10;87.10;;;;;;4997501;23;20243;-74
2021/12/04 09:19:45;;;;;;;2.92;2.72;;;14.70;82.20;;;;;;4982746;28;20224;-73
2021/12/04 09:22:16;;;;;;;5.05;3.70;;;15.30;78.70;;;;;;4969708;28;20606;-77
2021/12/04 09:24:47;;;;;;;4.07;3.78;;;15.50;78.10;;;;;;4989618;28;20232;-73
2021/12/04 09:27:20;;;;;;;4.00;3.63;;;15.50;77.30;;;;;;4974117;28;20345;-74
2021/12/04 09:30:01;;;;;;;5.68;3.75;;;15.40;77.30;;;;;;4958650;28;20244;-74
2021/12/04 09:35:32;;;;;;;3.83;3.53;;;15.10;76.70;;;;;;4938236;28;20233;-73
2021/12/04 10:00:18;;;;;;;4.78;4.38;;;9.90;91.50;;;;;;4969424;28;20745;-71
2021/12/04 10:03:09;;;;;;;4.10;3.80;;;9.60;92.90;;;;;;4963519;28;20244;-72
2021/12/04 10:14:21;;;;;;;5.07;4.57;;;9.40;95.90;;;;;;4945073;28;20258;-72
2021/12/04 10:19:49;;;;;;;4.70;4.07;;;9.10;95.90;;;;;;4965451;28;20761;-71
2021/12/04 10:22:26;;;;;;;5.22;4.60;;;9.00;96.00;;;;;;4963699;28;20300;-72
2021/12/04 10:33:26;;;;;;;4.40;3.88;;;8.50;96.60;;;;;;4958334;28;20552;-73
2021/12/04 10:35:54;;;;;;;4.55;4.18;;;8.40;96.70;;;;;;4961024;28;20449;-73
2021/12/04 10:38:23;;;;;;;4.78;4.38;;;8.30;96.70;;;;;;4959476;28;20647;-74
2021/12/04 10:40:53;;;;;;;4.35;3.95;;;8.30;97.00;;;;;;4960981;28;20234;-73
2021/12/04 10:43:23;;;;;;;4.10;3.80;;;8.10;96.80;;;;;;4951063;28;20241;-74
2021/12/04 10:45:53;;;;;;;4.13;3.83;;;8.10;97.00;;;;;;4956641;28;20226;-73
2021/12/04 10:48:26;;;;;;;4.30;3.90;;;8.10;96.80;;;;;;4963291;28;20221;-74
2021/12/04 10:51:01;;;;;;;4.82;3.55;;;8.20;96.40;;;;;;4968397;28;20230;-73
2021/12/04 10:53:33;;;;;;;4.30;3.90;;;8.40;96.20;;;;;;4965578;28;20213;-73
2021/12/04 10:56:21;;;;;;;3.83;3.53;;;8.50;96.20;;;;;;4962152;28;20218;-73
2021/12/04 11:01:44;;;;;;;5.07;3.95;;;8.30;96.20;;;;;;4961515;28;20287;-73
2021/12/04 11:04:23;;;;;;;4.45;4.05;;;8.10;96.10;;;;;;4970179;28;20291;-74
2021/12/04 11:21:15;;;;;;;4.38;3.97;;;6.60;97.90;;;;;;4960908;28;20558;-73
2021/12/04 11:26:45;;;;;;;4.10;3.80;;;6.50;98.10;;;;;;4926556;28;20320;-73
2021/12/04 11:40:54;;;;;;;4.68;4.28;;;5.60;99.80;;;;;;4949225;28;20300;-78
2021/12/04 11:43:29;;;;;;;5.10;4.60;;;5.70;99.70;;;;;;4958597;28;20577;-74
2021/12/04 11:46:13;;;;;;;4.70;4.20;;;5.60;99.50;;;;;;4955665;28;20217;-76
2021/12/04 11:48:42;;;;;;;6.10;5.47;;;5.60;99.60;;;;;;4963422;28;20292;-74
2021/12/04 11:51:14;;;;;;;6.57;5.45;;;5.50;99.80;;;;;;4968591;28;20249;-77
2021/12/04 11:53:41;;;;;;;6.55;5.20;;;5.40;99.90;;;;;;4976746;28;20276;-73
2021/12/04 11:56:15;;;;;;;5.90;5.30;;;5.30;99.90;;;;;;4973103;28;20228;-73
2021/12/04 11:58:45;;;;;;;4.82;4.32;;;5.30;99.90;;;;;;4967754;28;20278;-75
2021/12/04 12:01:28;;;;;;;5.22;4.68;;;5.30;99.90;;;;;;4964218;28;20229;-77
2021/12/04 12:03:56;;;;;;;5.07;4.63;;;5.30;99.90;;;;;;4965880;28;20253;-75
2021/12/04 12:06:33;;;;;;;5.05;4.07;;;5.40;99.90;;;;;;4965398;28;20218;-73
2021/12/04 12:09:08;;;;;;;4.70;4.30;;;5.40;99.90;;;;;;4959989;28;20221;-75
2021/12/04 12:11:36;;;;;;;4.43;4.13;;;5.50;99.90;;;;;;4965180;28;20225;-73
2021/12/04 12:14:08;;;;;;;5.07;4.35;;;5.50;99.90;;;;;;4954953;28;20229;-74
2021/12/04 12:16:43;;;;;;;4.80;4.20;;;5.50;99.90;;;;;;4965433;28;20233;-75
2021/12/04 12:19:15;;;;;;;5.47;5.00;;;5.50;99.90;;;;;;4963928;28;20232;-75
2021/12/04 12:21:51;;;;;;;5.35;4.55;;;5.30;99.90;;;;;;4963438;28;20590;-74
2021/12/04 12:27:26;;;;;;;4.93;4.53;;;5.00;99.90;;;;;;4949198;28;20273;-77
2021/12/04 12:33:01;;;;;;;5.07;4.53;;;4.90;99.90;;;;;;4961623;28;20249;-75
2021/12/04 12:38:31;;;;;;;4.07;3.75;;;5.00;99.90;;;;;;4959382;28;20308;-74
2021/12/04 12:41:01;;;;;;;4.30;3.95;;;5.00;99.90;;;;;;4960611;28;20762;-77
2021/12/04 12:43:45;;;;;;;5.32;4.43;;;5.20;99.90;;;;;;4963145;28;20225;-73
2021/12/04 12:46:12;;;;;;;4.68;4.25;;;5.20;99.90;;;;;;4972271;28;20221;-75
2021/12/04 12:48:50;;;;;;;4.88;4.38;;;5.20;99.90;;;;;;4967138;28;20752;-75
2021/12/04 12:51:26;;;;;;;3.85;3.50;;;5.30;99.90;;;;;;4958393;28;20233;-73
2021/12/04 12:53:54;;;;;;;4.40;4.00;;;5.50;99.90;;;;;;4958145;28;20229;-75
2021/12/04 12:56:25;;;;;;;4.43;4.03;;;5.80;99.90;;;;;;4965424;28;20218;-73
2021/12/04 12:58:56;;;;;;;4.10;3.80;;;6.30;99.90;;;;;;4967156;28;20230;-74
2021/12/04 13:13:31;;;;;;;5.40;4.40;;;6.90;99.90;;;;;;4953505;28;20321;-74
2021/12/04 13:16:04;;;;;;;5.20;4.40;;;7.20;99.10;;;;;;4961473;28;20233;-73
2021/12/04 13:18:33;;;;;;;5.03;3.63;;;7.30;98.80;;;;;;4962922;28;20230;-71
2021/12/04 13:21:06;;;;;;;4.68;4.28;;;7.00;98.70;;;;;;4962445;28;20262;-72
2021/12/04 13:23:34;;;;;;;4.22;3.88;;;6.50;98.80;;;;;;4961093;28;20308;-72
2021/12/04 13:26:05;;;;;;;4.50;4.10;;;6.20;99.40;;;;;;4961947;28;20723;-70
2021/12/04 13:28:36;;;;;;;4.75;4.35;;;5.90;99.60;;;;;;4963677;28;20631;-75
2021/12/04 13:31:03;;;;;;;3.95;3.65;;;5.80;99.90;;;;;;4967643;28;20220;-73
2021/12/04 13:33:32;;;;;;;3.80;3.58;;;5.60;99.90;;;;;;4967163;28;20595;-73
2021/12/04 13:35:59;;;;;;;4.40;4.00;;;5.50;99.90;;;;;;4958121;28;20216;-73
2021/12/04 13:38:29;;;;;;;4.30;3.90;;;5.40;99.90;;;;;;4961368;28;20238;-73
2021/12/04 13:40:58;;;;;;;4.00;3.70;;;5.40;99.90;;;;;;4964078;28;20283;-73
2021/12/04 13:43:26;;;;;;;3.92;3.60;;;5.40;99.90;;;;;;4955496;28;20319;-75
2021/12/04 13:45:58;;;;;;;4.18;3.78;;;5.30;99.90;;;;;;4965270;28;20755;-72
2021/12/04 13:48:26;;;;;;;3.95;3.65;;;5.30;99.90;;;;;;4958585;28;20237;-73
2021/12/04 13:50:55;;;;;;;3.80;3.50;;;5.30;99.90;;;;;;4952005;28;20225;-74
2021/12/04 13:53:26;;;;;;;3.28;2.97;;;5.30;99.90;;;;;;4966687;28;20310;-72
2021/12/04 13:55:58;;;;;;;4.18;3.78;;;5.30;99.90;;;;;;4964349;28;20225;-77
2021/12/04 13:58:26;;;;;;;3.58;3.20;;;5.30;99.90;;;;;;4964452;28;20257;-71
2021/12/04 14:00:53;;;;;;;3.67;2.70;;;5.30;99.90;;;;;;4965775;28;20233;-74
2021/12/04 14:03:23;;;;;;;3.83;3.53;;;5.20;99.90;;;;;;4966907;28;20229;-73
2021/12/04 14:05:51;;;;;;;4.13;3.78;;;5.20;99.90;;;;;;4963541;28;20233;-75
2021/12/04 14:08:18;;;;;;;4.00;3.70;;;5.10;99.90;;;;;;4970335;28;20235;-73
2021/12/04 14:10:48;;;;;;;4.00;3.70;;;5.00;99.90;;;;;;4954796;28;20677;-76
2021/12/04 14:13:21;;;;;;;3.63;3.33;;;4.90;99.90;;;;;;4958894;28;20224;-74
2021/12/04 14:15:50;;;;;;;4.85;3.72;;;4.80;99.90;;;;;;4960016;28;20672;-73
2021/12/04 14:18:19;;;;;;;5.10;4.70;;;4.50;99.90;;;;;;4957034;28;20221;-74
2021/12/04 14:20:51;;;;;;;6.45;5.85;;;4.40;99.90;;;;;;4971179;28;20225;-77
2021/12/04 14:23:18;;;;;;;7.30;5.95;;;4.40;99.90;;;;;;4958499;28;20677;-72
2021/12/04 14:25:53;;;;;;;4.75;4.35;;;4.40;99.90;;;;;;4958843;28;20244;-74
2021/12/04 14:28:25;;;;;;;4.55;4.13;;;4.40;99.90;;;;;;4955316;28;20317;-73
2021/12/04 14:30:53;;;;;;;4.30;3.90;;;4.40;99.90;;;;;;4965933;28;20754;-73
2021/12/04 14:33:23;;;;;;;4.47;4.18;;;4.50;99.90;;;;;;4960203;28;20234;-75
2021/12/04 14:35:52;;;;;;;4.80;4.28;;;4.30;99.90;;;;;;4978030;28;20233;-72
2021/12/04 14:38:22;;;;;;;7.80;7.10;;;4.20;99.90;;;;;;4967525;28;20252;-72
2021/12/04 14:40:51;;;;;;;12.02;10.88;;;4.20;99.90;;;;;;4969604;28;20241;-74
2021/12/04 14:43:23;;;;;;;12.60;11.40;;;4.20;99.90;;;;;;4970820;28;20229;-73
2021/12/04 14:45:55;;;;;;;10.15;9.25;;;4.20;99.90;;;;;;4964405;28;20553;-73
2021/12/04 14:48:26;;;;;;;7.90;7.20;;;4.20;99.90;;;;;;4966658;28;20237;-72
2021/12/04 14:51:02;;;;;;;8.30;7.60;;;4.20;99.90;;;;;;4964597;28;20233;-76
2021/12/04 14:53:30;;;;;;;7.65;6.95;;;4.20;99.90;;;;;;4976047;28;20220;-74
2021/12/04 14:55:58;;;;;;;6.60;5.90;;;4.30;99.90;;;;;;4965653;28;20233;-74
2021/12/04 14:58:29;;;;;;;7.55;5.75;;;4.20;99.90;;;;;;4967131;28;20751;-74
2021/12/04 15:00:59;;;;;;;6.10;5.50;;;4.20;99.90;;;;;;4966898;28;20229;-73
2021/12/04 15:03:34;;;;;;;5.45;4.95;;;4.10;99.90;;;;;;4964632;28;20230;-74
2021/12/04 15:06:03;;;;;;;12.38;7.85;;;4.10;99.90;;;;;;4964634;28;20223;-74
2021/12/04 15:08:33;;;;;;;9.15;6.88;;;4.10;99.90;;;;;;4964390;28;20249;-73
2021/12/04 15:11:02;;;;;;;6.93;6.22;;;4.10;99.90;;;;;;4966446;28;20232;-74
2021/12/04 15:13:35;;;;;;;10.25;8.63;;;4.10;99.90;;;;;;4962859;28;20711;-74
2021/12/04 15:16:05;;;;;;;10.02;9.07;;;4.00;99.90;;;;;;4972284;28;20268;-73
2021/12/04 15:18:35;;;;;;;7.78;6.97;;;4.00;99.90;;;;;;4969397;28;20251;-76
2021/12/04 15:21:07;;;;;;;7.25;6.55;;;3.90;99.90;;;;;;4967235;28;20225;-74
2021/12/04 15:23:36;;;;;;;6.68;6.07;;;3.90;99.90;;;;;;4966151;28;20739;-74
2021/12/04 15:26:09;;;;;;;6.45;5.85;;;3.80;99.90;;;;;;4996616;22;20567;-76
2021/12/04 15:28:45;;;;;;;7.22;6.50;;;3.80;99.90;;;;;;4977819;28;20510;-76
2021/12/04 15:31:12;;;;;;;7.47;6.78;;;3.80;99.90;;;;;;4988689;28;20237;-76
2021/12/04 15:33:41;;;;;;;6.32;5.72;;;3.70;99.90;;;;;;4967561;28;20655;-76
2021/12/04 15:36:19;;;;;;;6.07;4.97;;;3.60;99.90;;;;;;4979121;28;20642;-77
2021/12/04 15:38:50;;;;;;;6.97;6.28;;;3.50;99.90;;;;;;4988631;28;20220;-76
2021/12/04 15:41:32;;;;;;;6.15;5.57;;;3.40;99.90;;;;;;4974383;28;20274;-76